EDHI/XFW METAR and TAF weather

Enter ICAO airport designator
Station Type Date Time Source
EDHI METAR 2018/12/13 00:20 UTC NOAA

EDHI 130020Z AUTO 10006KT 060V160 9999 // OVC011/// 03/01 Q1027


Station Type Date Time Source
EDHI Decoded METAR 2018/12/13 00:20 UTC NOAA

Hamburg-Finkenwerder, Germany (EDHI) 53-32N 009-50E 13M
Dec 12, 2018 - 07:20 PM EST / 2018.12.13 0020 UTC
Wind: from the E (100 degrees) at 7 MPH (6 KT) (direction variable):0
Visibility: greater than 7 mile(s):0
Sky conditions: overcast
Temperature: 37 F (3 C)
Dew Point: 33 F (1 C)
Relative Humidity: 86%
Pressure (altimeter): 30.33 in. Hg (1027 hPa)
ob: EDHI 130020Z AUTO 10006KT 060V160 9999 // OVC011/// 03/01 Q1027
cycle: 0

Station Type Date Time Source
EDHI TAF 2010/02/22 14:20 UTC NOAA

METAR EDHI 221420Z 17005KT 9999 BKN030 05/02 Q0989


Example: see airport list